createdAt,value
2022-08-28T00:00:35.716Z,23.20
2022-08-28T00:03:02.436Z,23.20
2022-08-28T00:05:30.682Z,23.20
2022-08-28T00:07:57.391Z,23.20
2022-08-28T00:10:24.369Z,23.20
2022-08-28T00:12:51.642Z,23.20
2022-08-28T00:15:20.764Z,23.20
2022-08-28T00:17:47.514Z,23.20
2022-08-28T00:20:14.599Z,23.20
2022-08-28T00:22:41.468Z,23.20
2022-08-28T00:25:09.321Z,23.20
2022-08-28T00:27:55.003Z,23.10
2022-08-28T00:30:28.307Z,23.20
2022-08-28T00:32:55.611Z,23.10
2022-08-28T00:35:23.243Z,23.10
2022-08-28T00:37:50.584Z,23.10
2022-08-28T00:40:28.431Z,23.10
2022-08-28T00:43:00.399Z,23.00
2022-08-28T00:45:27.540Z,23.10
2022-08-28T00:47:54.288Z,23.10
2022-08-28T00:50:22.223Z,23.00
2022-08-28T00:52:50.515Z,23.00
2022-08-28T00:55:20.229Z,23.10
2022-08-28T00:57:51.535Z,23.10
2022-08-28T01:00:27.128Z,23.10
2022-08-28T01:02:53.812Z,23.00
2022-08-28T01:05:20.670Z,23.00
2022-08-28T01:07:47.457Z,23.00
2022-08-28T01:10:16.676Z,23.00
2022-08-28T01:12:43.916Z,23.00
2022-08-28T01:15:13.967Z,23.00
2022-08-28T01:17:43.098Z,23.00
2022-08-28T01:20:12.290Z,22.90
2022-08-28T01:22:42.847Z,22.90
2022-08-28T01:25:13.245Z,22.90
2022-08-28T01:27:41.858Z,22.90
2022-08-28T01:30:10.664Z,22.90
2022-08-28T01:32:40.692Z,22.90
2022-08-28T01:35:09.602Z,22.90
2022-08-28T01:37:36.767Z,22.80
2022-08-28T01:40:05.328Z,22.80
2022-08-28T01:42:37.706Z,22.80
2022-08-28T01:45:05.127Z,22.80
2022-08-28T01:47:31.722Z,22.80
2022-08-28T01:49:59.581Z,22.80
2022-08-28T01:52:26.537Z,22.80
2022-08-28T01:54:53.282Z,22.80
2022-08-28T01:57:19.901Z,22.80
2022-08-28T01:59:49.454Z,22.80
2022-08-28T02:02:16.111Z,22.80
2022-08-28T02:04:46.226Z,22.80
2022-08-28T02:07:16.750Z,22.80
2022-08-28T02:09:43.470Z,22.80
2022-08-28T02:12:10.217Z,22.80
2022-08-28T02:14:36.960Z,22.80
2022-08-28T02:17:03.608Z,22.80
2022-08-28T02:19:32.155Z,22.80
2022-08-28T02:21:58.831Z,22.80
2022-08-28T02:24:25.574Z,22.80
2022-08-28T02:26:52.213Z,22.80
2022-08-28T02:29:18.850Z,22.80
2022-08-28T02:31:45.465Z,22.80
2022-08-28T02:34:12.121Z,22.80
2022-08-28T02:36:42.108Z,22.80
2022-08-28T02:39:08.735Z,22.80
2022-08-28T02:41:35.346Z,22.80
2022-08-28T02:44:02.180Z,22.80
2022-08-28T02:46:28.872Z,22.80
2022-08-28T02:48:56.142Z,22.80
2022-08-28T02:51:23.304Z,22.80
2022-08-28T02:53:50.444Z,22.80
2022-08-28T02:56:17.144Z,22.80
2022-08-28T02:58:43.758Z,22.80
2022-08-28T03:01:12.009Z,22.80
2022-08-28T03:03:41.534Z,22.80
2022-08-28T03:06:08.691Z,22.70
2022-08-28T03:08:35.332Z,22.70
2022-08-28T03:11:01.960Z,22.70
2022-08-28T03:13:28.682Z,22.80
2022-08-28T03:15:55.808Z,22.80
2022-08-28T03:18:22.801Z,22.80
2022-08-28T03:20:49.407Z,22.80
2022-08-28T03:23:27.931Z,22.70
2022-08-28T03:26:02.477Z,22.70
2022-08-28T03:28:31.491Z,22.70
2022-08-28T03:30:58.215Z,22.70
2022-08-28T03:33:25.039Z,22.60
2022-08-28T03:35:51.641Z,22.60
2022-08-28T03:38:18.608Z,22.60
2022-08-28T03:40:46.240Z,22.60
2022-08-28T03:43:14.159Z,22.60
2022-08-28T03:45:41.072Z,22.50
2022-08-28T03:48:08.206Z,22.50
2022-08-28T03:50:36.019Z,22.50
2022-08-28T03:53:02.628Z,22.50
2022-08-28T03:55:29.331Z,22.50
2022-08-28T03:57:56.264Z,22.50
2022-08-28T04:00:22.877Z,22.50
2022-08-28T04:02:49.511Z,22.50
2022-08-28T04:05:17.490Z,22.50
2022-08-28T04:07:44.109Z,22.50
2022-08-28T04:10:12.051Z,22.50
2022-08-28T04:12:38.744Z,22.50
2022-08-28T04:15:07.097Z,22.50
2022-08-28T04:17:33.995Z,22.50
2022-08-28T04:20:00.622Z,22.50
2022-08-28T04:22:27.410Z,22.50
2022-08-28T04:24:54.501Z,22.50
2022-08-28T04:27:21.146Z,22.50
2022-08-28T04:29:49.033Z,22.50
2022-08-28T04:32:15.708Z,22.50
2022-08-28T04:34:42.370Z,22.60
2022-08-28T04:37:08.980Z,22.60
2022-08-28T04:39:35.655Z,22.50
2022-08-28T04:42:02.269Z,22.50
2022-08-28T04:44:28.960Z,22.50
2022-08-28T04:46:55.625Z,22.50
2022-08-28T04:49:26.075Z,22.50
2022-08-28T04:51:52.863Z,22.40
2022-08-28T04:54:19.890Z,22.40
2022-08-28T04:56:46.499Z,22.40
2022-08-28T04:59:13.413Z,22.40
2022-08-28T05:01:40.988Z,22.40
2022-08-28T05:04:07.902Z,22.40
2022-08-28T05:06:34.505Z,22.40
2022-08-28T05:09:01.963Z,22.40
2022-08-28T05:11:33.570Z,22.40
2022-08-28T05:14:04.135Z,22.40
2022-08-28T05:16:30.830Z,22.40
2022-08-28T05:19:00.360Z,22.40
2022-08-28T05:21:27.707Z,22.40
2022-08-28T05:23:56.412Z,22.40
2022-08-28T05:26:23.283Z,22.50
2022-08-28T05:28:54.388Z,22.50
2022-08-28T05:31:21.838Z,22.50
2022-08-28T05:33:48.959Z,22.60
2022-08-28T05:36:15.960Z,22.60
2022-08-28T05:38:42.625Z,22.60
2022-08-28T05:41:09.240Z,22.60
2022-08-28T05:43:35.925Z,22.60
2022-08-28T05:46:05.032Z,22.60
2022-08-28T05:48:35.204Z,22.70
2022-08-28T05:51:10.703Z,22.70
2022-08-28T05:53:41.269Z,22.70
2022-08-28T05:56:11.800Z,22.80
2022-08-28T05:58:40.293Z,22.80
2022-08-28T06:01:15.329Z,22.80
2022-08-28T06:03:42.901Z,22.90
2022-08-28T06:06:10.052Z,22.90
2022-08-28T06:08:37.133Z,23.00
2022-08-28T06:11:05.180Z,23.00
2022-08-28T06:13:33.765Z,23.00
2022-08-28T06:16:01.041Z,23.10
2022-08-28T06:18:27.746Z,23.10
2022-08-28T06:20:54.395Z,23.10
2022-08-28T06:23:24.093Z,23.20
2022-08-28T06:25:51.409Z,23.20
2022-08-28T06:28:20.313Z,23.20
2022-08-28T06:31:15.945Z,23.30
2022-08-28T06:33:33.934Z,23.30
2022-08-28T06:36:03.083Z,23.30
2022-08-28T06:38:30.226Z,23.40
2022-08-28T06:40:57.066Z,23.40
2022-08-28T06:43:27.327Z,23.40
2022-08-28T06:45:54.835Z,23.40
2022-08-28T06:48:23.944Z,23.40
2022-08-28T06:50:51.873Z,23.40
2022-08-28T06:53:19.301Z,23.50
2022-08-28T06:55:45.976Z,23.40
2022-08-28T06:58:12.751Z,23.50
2022-08-28T07:00:40.319Z,23.50
2022-08-28T07:03:06.951Z,23.50
2022-08-28T07:05:34.006Z,23.50
2022-08-28T07:08:00.800Z,23.50
2022-08-28T07:10:31.183Z,23.50
2022-08-28T07:12:58.513Z,23.50
2022-08-28T07:15:25.177Z,23.50
2022-08-28T07:17:51.820Z,23.50
2022-08-28T07:20:18.632Z,23.50
2022-08-28T07:22:50.974Z,23.60
2022-08-28T07:25:24.016Z,23.60
2022-08-28T07:27:50.722Z,23.60
2022-08-28T07:30:17.333Z,23.60
2022-08-28T07:32:43.957Z,23.70
2022-08-28T07:35:10.581Z,23.70
2022-08-28T07:37:37.583Z,23.70
2022-08-28T07:40:10.056Z,23.80
2022-08-28T07:42:56.731Z,23.90
2022-08-28T07:45:23.733Z,23.90
2022-08-28T07:47:50.879Z,24.00
2022-08-28T07:50:17.665Z,24.10
2022-08-28T07:52:44.287Z,24.10
2022-08-28T07:55:10.903Z,24.20
2022-08-28T07:57:37.533Z,24.30
2022-08-28T08:00:05.014Z,24.30
2022-08-28T08:02:31.682Z,24.40
2022-08-28T08:04:58.319Z,24.40
2022-08-28T08:07:24.949Z,24.50
2022-08-28T08:09:51.576Z,24.60
2022-08-28T08:12:18.241Z,24.70
2022-08-28T08:14:45.336Z,24.70
2022-08-28T08:17:12.085Z,24.90
2022-08-28T08:19:39.261Z,24.80
2022-08-28T08:22:06.154Z,24.90
2022-08-28T08:24:32.813Z,24.90
2022-08-28T08:27:01.005Z,25.00
2022-08-28T08:29:33.385Z,25.00
2022-08-28T08:32:05.101Z,25.00
2022-08-28T08:34:33.786Z,25.10
2022-08-28T08:37:00.437Z,25.20
2022-08-28T08:39:27.153Z,25.30
2022-08-28T08:41:57.755Z,25.50
2022-08-28T08:44:35.292Z,25.60
2022-08-28T08:47:14.531Z,25.80
2022-08-28T08:49:57.156Z,25.90
2022-08-28T08:52:45.385Z,25.90
2022-08-28T08:55:17.223Z,26.00
2022-08-28T08:57:46.105Z,26.10
2022-08-28T09:00:16.371Z,26.20
2022-08-28T09:02:54.949Z,26.30
2022-08-28T09:05:25.661Z,26.50
2022-08-28T09:07:58.794Z,26.60
2022-08-28T09:10:33.495Z,26.80
2022-08-28T09:13:13.471Z,26.90
2022-08-28T09:15:42.628Z,26.90
2022-08-28T09:18:14.213Z,26.90
2022-08-28T09:20:41.904Z,26.90
2022-08-28T09:23:12.683Z,26.80
2022-08-28T09:25:52.306Z,26.80
2022-08-28T09:28:36.878Z,26.90
2022-08-28T09:31:05.365Z,27.00
2022-08-28T09:33:40.006Z,27.00
2022-08-28T09:36:38.064Z,27.10
2022-08-28T09:39:17.456Z,27.20
2022-08-28T09:42:17.680Z,27.30
2022-08-28T09:45:20.968Z,27.30
2022-08-28T09:47:52.112Z,27.20
2022-08-28T09:50:31.459Z,27.20
2022-08-28T09:53:11.396Z,27.20
2022-08-28T09:56:02.481Z,27.20
2022-08-28T09:58:53.452Z,27.20
2022-08-28T10:01:44.713Z,27.20
2022-08-28T10:04:37.611Z,27.30
2022-08-28T10:07:05.405Z,27.20
2022-08-28T10:09:48.074Z,27.20
2022-08-28T10:12:43.534Z,27.30
2022-08-28T10:15:18.909Z,27.40
2022-08-28T10:18:24.320Z,27.70
2022-08-28T10:21:09.534Z,27.90
2022-08-28T10:24:01.775Z,28.10
2022-08-28T10:26:28.657Z,28.20
2022-08-28T10:29:05.649Z,28.40
2022-08-28T10:31:36.183Z,28.40
2022-08-28T10:34:13.723Z,28.40
2022-08-28T10:36:40.339Z,28.40
2022-08-28T10:39:27.597Z,28.40
2022-08-28T10:42:03.000Z,28.30
2022-08-28T10:44:54.471Z,28.30
2022-08-28T10:47:21.419Z,28.20
2022-08-28T10:49:50.169Z,28.10
2022-08-28T10:52:27.490Z,28.00
2022-08-28T10:54:58.696Z,28.00
2022-08-28T10:57:45.824Z,28.00
2022-08-28T11:00:14.233Z,28.00
2022-08-28T11:02:42.272Z,28.00
2022-08-28T11:05:10.101Z,28.20
2022-08-28T11:07:49.343Z,28.50
2022-08-28T11:10:23.659Z,28.90
2022-08-28T11:12:51.838Z,29.30
2022-08-28T11:15:31.539Z,29.70
2022-08-28T11:18:15.644Z,30.00
2022-08-28T11:21:01.229Z,30.40
2022-08-28T11:23:35.653Z,30.90
2022-08-28T11:26:04.028Z,31.80
2022-08-28T11:28:36.673Z,32.60
2022-08-28T11:31:06.136Z,33.50
2022-08-28T11:33:48.382Z,34.30
2022-08-28T11:36:23.733Z,35.30
2022-08-28T11:38:56.322Z,36.00
2022-08-28T11:41:27.422Z,36.60
2022-08-28T11:44:09.337Z,36.80
2022-08-28T11:46:37.868Z,37.10
2022-08-28T11:49:26.353Z,37.50
2022-08-28T11:52:20.686Z,38.10
2022-08-28T11:55:24.758Z,38.80
2022-08-28T11:58:15.843Z,39.50
2022-08-28T12:01:03.989Z,40.00
2022-08-28T12:03:43.631Z,40.20
2022-08-28T12:06:10.814Z,40.10
2022-08-28T12:08:58.525Z,39.90
2022-08-28T12:11:40.382Z,40.10
2022-08-28T12:14:11.107Z,40.50
2022-08-28T12:16:59.471Z,40.90
2022-08-28T12:20:10.334Z,41.50
2022-08-28T12:22:50.081Z,41.80
2022-08-28T12:25:42.493Z,42.40
2022-08-28T12:28:31.729Z,43.00
2022-08-28T12:31:06.050Z,43.40
2022-08-28T12:33:55.145Z,43.60
2022-08-28T12:36:26.515Z,43.80
2022-08-28T12:38:53.783Z,44.00
2022-08-28T12:41:21.036Z,44.00
2022-08-28T12:43:48.310Z,44.00
2022-08-28T12:46:27.189Z,43.90
2022-08-28T12:48:59.565Z,44.00
2022-08-28T12:51:28.353Z,44.00
2022-08-28T12:53:57.123Z,44.20
2022-08-28T12:56:24.422Z,44.20
2022-08-28T12:58:51.098Z,44.30
2022-08-28T13:01:29.779Z,44.30
2022-08-28T13:04:23.473Z,44.30
2022-08-28T13:06:50.095Z,44.20
2022-08-28T13:09:19.548Z,44.30
2022-08-28T13:11:49.046Z,44.30
2022-08-28T13:14:33.350Z,44.30
2022-08-28T13:17:00.502Z,44.40
2022-08-28T13:19:36.543Z,44.40
2022-08-28T13:22:05.452Z,44.50
2022-08-28T13:24:34.876Z,44.40
2022-08-28T13:27:16.896Z,44.20
2022-08-28T13:30:00.046Z,44.10
2022-08-28T13:32:28.388Z,44.00
2022-08-28T13:35:13.474Z,43.80
2022-08-28T13:37:49.902Z,43.70
2022-08-28T13:43:10.977Z,43.40
2022-08-28T13:45:43.134Z,42.90
2022-08-28T13:48:11.807Z,42.40
2022-08-28T13:50:39.942Z,41.80
2022-08-28T13:53:06.633Z,41.20
2022-08-28T13:55:33.327Z,40.50
2022-08-28T13:57:59.961Z,39.80
2022-08-28T14:00:26.597Z,39.20
2022-08-28T14:03:11.633Z,38.40
2022-08-28T14:05:38.303Z,37.70
2022-08-28T14:08:04.900Z,37.00
2022-08-28T14:10:31.510Z,36.50
2022-08-28T14:12:58.304Z,36.00
2022-08-28T14:15:24.953Z,35.50
2022-08-28T14:17:51.551Z,35.20
2022-08-28T14:20:18.219Z,34.70
2022-08-28T14:22:45.264Z,34.40
2022-08-28T14:25:11.907Z,34.10
2022-08-28T14:27:38.542Z,33.90
2022-08-28T14:30:06.676Z,33.70
2022-08-28T14:32:33.917Z,33.40
2022-08-28T14:35:00.683Z,33.20
2022-08-28T14:37:27.377Z,33.00
2022-08-28T14:39:54.092Z,32.80
2022-08-28T14:42:20.729Z,32.50
2022-08-28T14:44:47.379Z,32.40
2022-08-28T14:47:14.013Z,32.20
2022-08-28T14:49:40.782Z,32.00
2022-08-28T14:52:07.444Z,31.90
2022-08-28T14:54:34.048Z,31.70
2022-08-28T14:57:00.662Z,31.60
2022-08-28T14:59:28.750Z,31.40
2022-08-28T15:01:58.010Z,31.30
2022-08-28T15:04:24.931Z,31.30
2022-08-28T15:06:55.187Z,31.20
2022-08-28T15:09:21.827Z,31.10
2022-08-28T15:11:48.460Z,31.00
2022-08-28T15:14:15.131Z,30.90
2022-08-28T15:16:44.104Z,30.90
2022-08-28T15:19:12.233Z,30.80
2022-08-28T15:21:47.436Z,30.80
2022-08-28T15:24:15.279Z,30.70
2022-08-28T15:26:41.899Z,30.80
2022-08-28T15:29:08.885Z,30.70
2022-08-28T15:31:37.136Z,30.70
2022-08-28T15:34:13.321Z,30.70
2022-08-28T15:36:44.395Z,30.60
2022-08-28T15:39:29.589Z,30.60
2022-08-28T15:41:56.380Z,30.50
2022-08-28T15:44:23.013Z,30.40
2022-08-28T15:46:51.789Z,30.40
2022-08-28T15:49:19.938Z,30.30
2022-08-28T15:51:46.799Z,30.30
2022-08-28T15:54:13.421Z,30.20
2022-08-28T15:56:41.289Z,30.10
2022-08-28T15:59:11.077Z,30.10
2022-08-28T16:01:38.335Z,30.10
2022-08-28T16:04:06.495Z,30.10
2022-08-28T16:06:33.588Z,30.00
2022-08-28T16:09:00.224Z,30.00
2022-08-28T16:11:26.955Z,30.00
2022-08-28T16:13:53.899Z,29.90
2022-08-28T16:16:20.611Z,29.80
2022-08-28T16:18:47.471Z,29.80
2022-08-28T16:21:14.173Z,29.70
2022-08-28T16:23:40.841Z,29.70
2022-08-28T16:26:08.049Z,29.70
2022-08-28T16:28:35.023Z,29.70
2022-08-28T16:31:07.352Z,29.60
2022-08-28T16:33:34.555Z,29.60
2022-08-28T16:36:03.641Z,29.60
2022-08-28T16:38:30.428Z,29.50
2022-08-28T16:40:57.210Z,29.50
2022-08-28T16:43:23.857Z,29.40
2022-08-28T16:45:51.017Z,29.30
2022-08-28T16:48:17.664Z,29.30
2022-08-28T16:50:44.403Z,29.20
2022-08-28T16:53:11.891Z,29.10
2022-08-28T16:55:39.168Z,29.00
2022-08-28T16:58:05.838Z,28.90
2022-08-28T17:00:33.294Z,28.80
2022-08-28T17:03:00.476Z,28.80
2022-08-28T17:05:27.511Z,28.70
2022-08-28T17:07:54.627Z,28.60
2022-08-28T17:10:22.323Z,28.60
2022-08-28T17:12:49.010Z,28.50
2022-08-28T17:15:15.701Z,28.50
2022-08-28T17:17:42.364Z,28.40
2022-08-28T17:20:29.398Z,28.30
2022-08-28T17:22:56.012Z,28.30
2022-08-28T17:25:22.859Z,28.20
2022-08-28T17:27:50.370Z,28.20
2022-08-28T17:30:18.902Z,28.10
2022-08-28T17:32:45.935Z,28.00
2022-08-28T17:35:12.887Z,28.00
2022-08-28T17:37:40.723Z,27.90
2022-08-28T17:40:09.381Z,27.90
2022-08-28T17:42:36.532Z,27.80
2022-08-28T17:45:04.556Z,27.70
2022-08-28T17:47:31.757Z,27.70
2022-08-28T17:50:01.601Z,27.60
2022-08-28T17:52:28.599Z,27.50
2022-08-28T17:54:55.232Z,27.50
2022-08-28T17:57:23.125Z,27.40
2022-08-28T17:59:49.855Z,27.30
2022-08-28T18:02:17.064Z,27.30
2022-08-28T18:04:44.048Z,27.20
2022-08-28T18:07:10.845Z,27.10
2022-08-28T18:09:37.531Z,27.10
2022-08-28T18:12:04.272Z,27.00
2022-08-28T18:14:31.165Z,27.00
2022-08-28T18:16:57.811Z,27.00
2022-08-28T18:19:24.470Z,26.90
2022-08-28T18:21:51.159Z,26.90
2022-08-28T18:24:17.790Z,26.80
2022-08-28T18:26:44.566Z,26.80
2022-08-28T18:29:11.458Z,26.80
2022-08-28T18:31:38.180Z,26.70
2022-08-28T18:34:05.132Z,26.70
2022-08-28T18:36:31.816Z,26.60
2022-08-28T18:38:58.468Z,26.60
2022-08-28T18:41:43.234Z,26.50
2022-08-28T18:44:11.076Z,26.50
2022-08-28T18:46:37.741Z,26.50
2022-08-28T18:49:04.400Z,26.40
2022-08-28T18:51:32.559Z,26.40
2022-08-28T18:54:00.908Z,26.30
2022-08-28T18:56:30.384Z,26.30
2022-08-28T18:58:59.172Z,26.30
2022-08-28T19:01:25.909Z,26.30
2022-08-28T19:03:54.157Z,26.30
2022-08-28T19:06:20.907Z,26.20
2022-08-28T19:08:47.518Z,26.20
2022-08-28T19:11:14.389Z,26.20
2022-08-28T19:13:41.681Z,26.10
2022-08-28T19:16:08.495Z,26.10
2022-08-28T19:18:35.173Z,26.10
2022-08-28T19:21:16.448Z,26.00
2022-08-28T19:23:43.366Z,26.00
2022-08-28T19:26:22.366Z,26.00
2022-08-28T19:28:50.454Z,25.90
2022-08-28T19:31:17.590Z,25.90
2022-08-28T19:33:46.299Z,25.90
2022-08-28T19:36:13.509Z,25.80
2022-08-28T19:38:40.527Z,25.80
2022-08-28T19:41:07.952Z,25.80
2022-08-28T19:43:44.187Z,25.80
2022-08-28T19:46:19.572Z,25.90
2022-08-28T19:48:48.132Z,25.90
2022-08-28T19:51:22.175Z,25.90
2022-08-28T19:53:56.814Z,25.90
2022-08-28T19:56:26.985Z,25.90
2022-08-28T19:58:54.765Z,25.90
2022-08-28T20:01:21.485Z,25.90
2022-08-28T20:03:48.139Z,25.90
2022-08-28T20:06:14.751Z,25.80
2022-08-28T20:08:41.339Z,25.80
2022-08-28T20:11:08.539Z,25.80
2022-08-28T20:13:35.456Z,25.80
2022-08-28T20:16:05.351Z,25.80
2022-08-28T20:18:33.312Z,25.80
2022-08-28T20:21:00.118Z,25.80
2022-08-28T20:23:26.760Z,25.80
2022-08-28T20:25:53.352Z,25.80
2022-08-28T20:28:20.063Z,25.80
2022-08-28T20:30:46.835Z,25.80
2022-08-28T20:33:13.606Z,25.80
2022-08-28T20:35:40.351Z,25.80
2022-08-28T20:38:07.055Z,25.80
2022-08-28T20:40:33.861Z,25.80
2022-08-28T20:43:00.670Z,25.80
2022-08-28T20:45:28.033Z,25.70
2022-08-28T20:47:54.639Z,25.70
2022-08-28T20:50:21.331Z,25.70
2022-08-28T20:52:47.951Z,25.70
2022-08-28T20:55:14.815Z,25.70
2022-08-28T20:57:41.589Z,25.70
2022-08-28T21:00:09.282Z,25.60
2022-08-28T21:02:36.156Z,25.60
2022-08-28T21:05:02.842Z,25.60
2022-08-28T21:07:29.741Z,25.50
2022-08-28T21:10:05.787Z,25.50
2022-08-28T21:12:35.612Z,25.40
2022-08-28T21:15:02.562Z,25.40
2022-08-28T21:17:30.734Z,25.30
2022-08-28T21:19:59.938Z,25.30
2022-08-28T21:22:26.646Z,25.30
2022-08-28T21:24:53.253Z,25.20
2022-08-28T21:27:19.870Z,25.20
2022-08-28T21:29:47.774Z,25.10
2022-08-28T21:32:14.424Z,25.10
2022-08-28T21:34:41.047Z,25.10
2022-08-28T21:37:07.680Z,25.10
2022-08-28T21:39:34.887Z,25.00
2022-08-28T21:42:01.714Z,25.00
2022-08-28T21:44:28.944Z,25.00
2022-08-28T21:46:55.552Z,25.00
2022-08-28T21:49:23.236Z,25.00
2022-08-28T21:51:50.268Z,25.00
2022-08-28T21:54:17.325Z,25.00
2022-08-28T21:56:43.989Z,24.90
2022-08-28T21:59:10.633Z,24.90
2022-08-28T22:01:37.330Z,24.90
2022-08-28T22:04:04.252Z,24.90
2022-08-28T22:06:30.931Z,24.90
2022-08-28T22:08:57.697Z,24.80
2022-08-28T22:11:25.308Z,24.80
2022-08-28T22:13:52.938Z,24.70
2022-08-28T22:16:20.083Z,24.70
2022-08-28T22:18:46.753Z,24.70
2022-08-28T22:21:36.781Z,24.60
2022-08-28T22:24:03.711Z,24.60
2022-08-28T22:26:30.341Z,24.50
2022-08-28T22:28:57.373Z,24.40
2022-08-28T22:31:24.072Z,24.40
2022-08-28T22:33:51.129Z,24.40
2022-08-28T22:36:17.795Z,24.40
2022-08-28T22:38:53.040Z,24.30
2022-08-28T22:41:20.404Z,24.30
2022-08-28T22:43:50.416Z,24.30
2022-08-28T22:46:18.610Z,24.30
2022-08-28T22:48:45.954Z,24.30
2022-08-28T22:51:13.919Z,24.20
2022-08-28T22:53:41.126Z,24.20
2022-08-28T22:56:08.449Z,24.20
2022-08-28T22:58:35.081Z,24.20
2022-08-28T23:01:05.798Z,24.10
2022-08-28T23:03:32.843Z,24.10
2022-08-28T23:05:59.520Z,24.10
2022-08-28T23:08:29.647Z,24.20
2022-08-28T23:10:59.625Z,24.20
2022-08-28T23:13:26.748Z,24.10
2022-08-28T23:15:53.360Z,24.10
2022-08-28T23:18:21.035Z,24.10
2022-08-28T23:20:47.650Z,24.10
2022-08-28T23:23:17.400Z,24.00
2022-08-28T23:25:44.119Z,23.90
2022-08-28T23:28:10.768Z,23.90
2022-08-28T23:30:38.935Z,23.80
2022-08-28T23:33:08.745Z,23.80
2022-08-28T23:35:36.050Z,23.80
2022-08-28T23:38:03.522Z,23.70
2022-08-28T23:40:30.572Z,23.70
2022-08-28T23:42:57.989Z,23.70
2022-08-28T23:45:25.979Z,23.70
2022-08-28T23:47:54.069Z,23.70
2022-08-28T23:50:21.418Z,23.70
2022-08-28T23:52:48.100Z,23.60
2022-08-28T23:55:15.176Z,23.60
2022-08-28T23:57:41.904Z,23.60
